sensor_id;sensor_type;location;lat;lon;timestamp;temperature;humidity
78345;DHT22;67620;51.134;6.548;2023-04-19T00:02:02;11.70;66.50
78345;DHT22;67620;51.134;6.548;2023-04-19T00:04:27;11.60;66.60
78345;DHT22;67620;51.134;6.548;2023-04-19T00:06:54;11.60;66.60
78345;DHT22;67620;51.134;6.548;2023-04-19T00:09:19;11.60;66.70
78345;DHT22;67620;51.134;6.548;2023-04-19T00:11:45;11.60;66.70
78345;DHT22;67620;51.134;6.548;2023-04-19T00:14:10;11.60;66.70
78345;DHT22;67620;51.134;6.548;2023-04-19T00:16:36;11.60;67.10
78345;DHT22;67620;51.134;6.548;2023-04-19T00:19:01;11.60;66.90
78345;DHT22;67620;51.134;6.548;2023-04-19T00:21:27;11.60;66.80
78345;DHT22;67620;51.134;6.548;2023-04-19T00:23:52;11.60;66.90
78345;DHT22;67620;51.134;6.548;2023-04-19T00:26:18;11.60;66.90
78345;DHT22;67620;51.134;6.548;2023-04-19T00:28:44;11.60;66.90
78345;DHT22;67620;51.134;6.548;2023-04-19T00:31:10;11.60;66.90
78345;DHT22;67620;51.134;6.548;2023-04-19T00:33:35;11.60;66.80
78345;DHT22;67620;51.134;6.548;2023-04-19T00:36:01;11.60;66.80
78345;DHT22;67620;51.134;6.548;2023-04-19T00:38:27;11.60;67.10
78345;DHT22;67620;51.134;6.548;2023-04-19T00:40:52;11.50;67.00
78345;DHT22;67620;51.134;6.548;2023-04-19T00:43:18;11.50;67.10
78345;DHT22;67620;51.134;6.548;2023-04-19T00:45:44;11.50;67.10
78345;DHT22;67620;51.134;6.548;2023-04-19T00:48:11;11.50;67.30
78345;DHT22;67620;51.134;6.548;2023-04-19T00:50:37;11.50;67.30
78345;DHT22;67620;51.134;6.548;2023-04-19T00:53:03;11.50;67.40
78345;DHT22;67620;51.134;6.548;2023-04-19T00:55:28;11.50;67.60
78345;DHT22;67620;51.134;6.548;2023-04-19T00:57:54;11.50;67.60
78345;DHT22;67620;51.134;6.548;2023-04-19T01:00:19;11.50;67.80
78345;DHT22;67620;51.134;6.548;2023-04-19T01:02:45;11.50;68.00
78345;DHT22;67620;51.134;6.548;2023-04-19T01:05:12;11.50;67.90
78345;DHT22;67620;51.134;6.548;2023-04-19T01:07:37;11.50;68.10
78345;DHT22;67620;51.134;6.548;2023-04-19T01:10:03;11.50;68.10
78345;DHT22;67620;51.134;6.548;2023-04-19T01:12:28;11.50;68.10
78345;DHT22;67620;51.134;6.548;2023-04-19T01:14:54;11.50;68.00
78345;DHT22;67620;51.134;6.548;2023-04-19T01:17:20;11.50;68.20
78345;DHT22;67620;51.134;6.548;2023-04-19T01:19:45;11.50;68.10
78345;DHT22;67620;51.134;6.548;2023-04-19T01:22:18;11.50;68.10
78345;DHT22;67620;51.134;6.548;2023-04-19T01:24:43;11.50;68.00
78345;DHT22;67620;51.134;6.548;2023-04-19T01:27:09;11.50;68.00
78345;DHT22;67620;51.134;6.548;2023-04-19T01:29:35;11.50;67.80
78345;DHT22;67620;51.134;6.548;2023-04-19T01:32:01;11.50;67.90
78345;DHT22;67620;51.134;6.548;2023-04-19T01:34:26;11.50;68.00
78345;DHT22;67620;51.134;6.548;2023-04-19T01:36:52;11.40;68.10
78345;DHT22;67620;51.134;6.548;2023-04-19T01:39:17;11.50;68.50
78345;DHT22;67620;51.134;6.548;2023-04-19T01:41:43;11.50;68.30
78345;DHT22;67620;51.134;6.548;2023-04-19T01:44:08;11.40;68.30
78345;DHT22;67620;51.134;6.548;2023-04-19T01:46:34;11.40;68.70
78345;DHT22;67620;51.134;6.548;2023-04-19T01:49:00;11.40;68.80
78345;DHT22;67620;51.134;6.548;2023-04-19T01:51:26;11.40;68.80
78345;DHT22;67620;51.134;6.548;2023-04-19T01:53:52;11.40;68.90
78345;DHT22;67620;51.134;6.548;2023-04-19T01:56:19;11.40;69.10
78345;DHT22;67620;51.134;6.548;2023-04-19T01:58:46;11.40;69.20
78345;DHT22;67620;51.134;6.548;2023-04-19T02:01:11;11.40;69.30
78345;DHT22;67620;51.134;6.548;2023-04-19T02:03:40;11.40;69.40
78345;DHT22;67620;51.134;6.548;2023-04-19T02:06:10;11.40;69.30
78345;DHT22;67620;51.134;6.548;2023-04-19T02:08:37;11.40;69.60
78345;DHT22;67620;51.134;6.548;2023-04-19T02:11:09;11.40;69.60
78345;DHT22;67620;51.134;6.548;2023-04-19T02:13:35;11.40;69.80
78345;DHT22;67620;51.134;6.548;2023-04-19T02:16:01;11.40;69.60
78345;DHT22;67620;51.134;6.548;2023-04-19T02:18:28;11.40;69.80
78345;DHT22;67620;51.134;6.548;2023-04-19T02:21:00;11.40;70.10
78345;DHT22;67620;51.134;6.548;2023-04-19T02:23:25;11.30;70.00
78345;DHT22;67620;51.134;6.548;2023-04-19T02:25:51;11.30;70.20
78345;DHT22;67620;51.134;6.548;2023-04-19T02:28:17;11.30;70.30
78345;DHT22;67620;51.134;6.548;2023-04-19T02:30:43;11.30;70.20
78345;DHT22;67620;51.134;6.548;2023-04-19T02:33:08;11.30;70.50
78345;DHT22;67620;51.134;6.548;2023-04-19T02:35:34;11.30;70.60
78345;DHT22;67620;51.134;6.548;2023-04-19T02:38:01;11.30;70.90
78345;DHT22;67620;51.134;6.548;2023-04-19T02:40:27;11.30;71.10
78345;DHT22;67620;51.134;6.548;2023-04-19T02:42:52;11.30;71.10
78345;DHT22;67620;51.134;6.548;2023-04-19T02:45:18;11.30;71.10
78345;DHT22;67620;51.134;6.548;2023-04-19T02:47:43;11.30;71.30
78345;DHT22;67620;51.134;6.548;2023-04-19T02:50:11;11.30;71.20
78345;DHT22;67620;51.134;6.548;2023-04-19T02:52:36;11.30;71.40
78345;DHT22;67620;51.134;6.548;2023-04-19T02:55:02;11.30;71.50
78345;DHT22;67620;51.134;6.548;2023-04-19T02:57:29;11.30;71.70
78345;DHT22;67620;51.134;6.548;2023-04-19T02:59:54;11.30;71.80
78345;DHT22;67620;51.134;6.548;2023-04-19T03:02:20;11.30;72.00
78345;DHT22;67620;51.134;6.548;2023-04-19T03:04:45;11.20;72.50
78345;DHT22;67620;51.134;6.548;2023-04-19T03:07:11;11.20;72.60
78345;DHT22;67620;51.134;6.548;2023-04-19T03:09:37;11.30;72.60
78345;DHT22;67620;51.134;6.548;2023-04-19T03:12:03;11.30;72.70
78345;DHT22;67620;51.134;6.548;2023-04-19T03:14:29;11.20;72.70
78345;DHT22;67620;51.134;6.548;2023-04-19T03:16:54;11.20;72.90
78345;DHT22;67620;51.134;6.548;2023-04-19T03:19:20;11.20;73.00
78345;DHT22;67620;51.134;6.548;2023-04-19T03:21:46;11.30;72.90
78345;DHT22;67620;51.134;6.548;2023-04-19T03:24:12;11.20;72.80
78345;DHT22;67620;51.134;6.548;2023-04-19T03:26:38;11.20;72.90
78345;DHT22;67620;51.134;6.548;2023-04-19T03:29:03;11.20;72.70
78345;DHT22;67620;51.134;6.548;2023-04-19T03:31:29;11.20;72.60
78345;DHT22;67620;51.134;6.548;2023-04-19T03:33:54;11.20;72.60
78345;DHT22;67620;51.134;6.548;2023-04-19T03:36:20;11.20;72.40
78345;DHT22;67620;51.134;6.548;2023-04-19T03:38:46;11.20;72.40
78345;DHT22;67620;51.134;6.548;2023-04-19T03:41:23;11.20;72.40
78345;DHT22;67620;51.134;6.548;2023-04-19T03:43:48;11.20;72.40
78345;DHT22;67620;51.134;6.548;2023-04-19T03:46:14;11.20;72.10
78345;DHT22;67620;51.134;6.548;2023-04-19T03:48:40;11.20;72.40
78345;DHT22;67620;51.134;6.548;2023-04-19T03:51:05;11.20;72.30
78345;DHT22;67620;51.134;6.548;2023-04-19T03:53:31;11.20;72.40
78345;DHT22;67620;51.134;6.548;2023-04-19T03:55:56;11.20;72.30
78345;DHT22;67620;51.134;6.548;2023-04-19T03:58:22;11.20;71.90
78345;DHT22;67620;51.134;6.548;2023-04-19T04:00:47;11.20;72.30
78345;DHT22;67620;51.134;6.548;2023-04-19T04:03:13;11.20;72.00
78345;DHT22;67620;51.134;6.548;2023-04-19T04:05:38;11.20;71.80
78345;DHT22;67620;51.134;6.548;2023-04-19T04:08:04;11.20;71.90
78345;DHT22;67620;51.134;6.548;2023-04-19T04:10:30;11.20;71.80
78345;DHT22;67620;51.134;6.548;2023-04-19T04:12:55;11.20;71.80
78345;DHT22;67620;51.134;6.548;2023-04-19T04:15:21;11.20;72.00
78345;DHT22;67620;51.134;6.548;2023-04-19T04:17:47;11.20;72.00
78345;DHT22;67620;51.134;6.548;2023-04-19T04:20:12;11.10;72.00
78345;DHT22;67620;51.134;6.548;2023-04-19T04:22:44;11.20;72.10
78345;DHT22;67620;51.134;6.548;2023-04-19T04:25:15;11.20;72.30
78345;DHT22;67620;51.134;6.548;2023-04-19T04:27:41;11.20;72.10
78345;DHT22;67620;51.134;6.548;2023-04-19T04:30:08;11.20;72.00
78345;DHT22;67620;51.134;6.548;2023-04-19T04:32:34;11.20;72.10
78345;DHT22;67620;51.134;6.548;2023-04-19T04:35:01;11.10;72.10
78345;DHT22;67620;51.134;6.548;2023-04-19T04:37:27;11.20;72.20
78345;DHT22;67620;51.134;6.548;2023-04-19T04:39:52;11.20;72.00
78345;DHT22;67620;51.134;6.548;2023-04-19T04:42:17;11.20;72.00
78345;DHT22;67620;51.134;6.548;2023-04-19T04:44:46;11.10;72.00
78345;DHT22;67620;51.134;6.548;2023-04-19T04:47:12;11.10;72.10
78345;DHT22;67620;51.134;6.548;2023-04-19T04:49:38;11.10;71.70
78345;DHT22;67620;51.134;6.548;2023-04-19T04:52:03;11.10;71.60
78345;DHT22;67620;51.134;6.548;2023-04-19T04:54:29;11.10;71.40
78345;DHT22;67620;51.134;6.548;2023-04-19T04:56:55;11.10;71.50
78345;DHT22;67620;51.134;6.548;2023-04-19T04:59:20;11.10;71.70
78345;DHT22;67620;51.134;6.548;2023-04-19T05:01:46;11.20;71.40
78345;DHT22;67620;51.134;6.548;2023-04-19T05:04:11;11.10;71.40
78345;DHT22;67620;51.134;6.548;2023-04-19T05:06:37;11.10;71.40
78345;DHT22;67620;51.134;6.548;2023-04-19T05:09:06;11.10;71.00
78345;DHT22;67620;51.134;6.548;2023-04-19T05:11:32;11.10;71.10
78345;DHT22;67620;51.134;6.548;2023-04-19T05:13:58;11.10;71.20
78345;DHT22;67620;51.134;6.548;2023-04-19T05:16:24;11.10;71.00
78345;DHT22;67620;51.134;6.548;2023-04-19T05:18:49;11.10;71.00
78345;DHT22;67620;51.134;6.548;2023-04-19T05:21:15;11.10;70.80
78345;DHT22;67620;51.134;6.548;2023-04-19T05:23:40;11.10;70.80
78345;DHT22;67620;51.134;6.548;2023-04-19T05:26:06;11.10;70.60
78345;DHT22;67620;51.134;6.548;2023-04-19T05:28:31;11.10;70.00
78345;DHT22;67620;51.134;6.548;2023-04-19T05:30:57;11.10;69.70
78345;DHT22;67620;51.134;6.548;2023-04-19T05:33:22;11.10;69.60
78345;DHT22;67620;51.134;6.548;2023-04-19T05:35:48;11.10;69.50
78345;DHT22;67620;51.134;6.548;2023-04-19T05:38:13;11.10;68.80
78345;DHT22;67620;51.134;6.548;2023-04-19T05:40:39;11.10;68.90
78345;DHT22;67620;51.134;6.548;2023-04-19T05:43:05;11.10;68.30
78345;DHT22;67620;51.134;6.548;2023-04-19T05:45:30;11.10;68.10
78345;DHT22;67620;51.134;6.548;2023-04-19T05:47:56;11.10;67.90
78345;DHT22;67620;51.134;6.548;2023-04-19T05:50:21;11.10;68.50
78345;DHT22;67620;51.134;6.548;2023-04-19T05:52:47;11.10;68.10
78345;DHT22;67620;51.134;6.548;2023-04-19T05:55:12;11.10;66.90
78345;DHT22;67620;51.134;6.548;2023-04-19T05:57:38;11.10;67.20
78345;DHT22;67620;51.134;6.548;2023-04-19T06:00:04;11.10;66.00
78345;DHT22;67620;51.134;6.548;2023-04-19T06:02:30;11.10;66.20
78345;DHT22;67620;51.134;6.548;2023-04-19T06:04:56;11.00;66.10
78345;DHT22;67620;51.134;6.548;2023-04-19T06:07:24;11.10;66.30
78345;DHT22;67620;51.134;6.548;2023-04-19T06:09:49;11.00;64.80
78345;DHT22;67620;51.134;6.548;2023-04-19T06:12:15;11.00;64.70
78345;DHT22;67620;51.134;6.548;2023-04-19T06:14:40;11.00;65.00
78345;DHT22;67620;51.134;6.548;2023-04-19T06:17:06;11.00;64.60
78345;DHT22;67620;51.134;6.548;2023-04-19T06:19:31;11.00;63.80
78345;DHT22;67620;51.134;6.548;2023-04-19T06:21:58;11.00;63.90
78345;DHT22;67620;51.134;6.548;2023-04-19T06:24:24;11.00;63.60
78345;DHT22;67620;51.134;6.548;2023-04-19T06:26:50;11.00;63.90
78345;DHT22;67620;51.134;6.548;2023-04-19T06:29:16;11.00;63.70
78345;DHT22;67620;51.134;6.548;2023-04-19T06:31:44;11.00;62.80
78345;DHT22;67620;51.134;6.548;2023-04-19T06:34:10;11.00;62.90
78345;DHT22;67620;51.134;6.548;2023-04-19T06:36:36;11.00;62.80
78345;DHT22;67620;51.134;6.548;2023-04-19T06:39:01;11.00;63.20
78345;DHT22;67620;51.134;6.548;2023-04-19T06:41:27;11.10;63.90
78345;DHT22;67620;51.134;6.548;2023-04-19T06:43:52;11.10;63.20
78345;DHT22;67620;51.134;6.548;2023-04-19T06:46:18;11.10;63.50
78345;DHT22;67620;51.134;6.548;2023-04-19T06:48:43;11.10;62.80
78345;DHT22;67620;51.134;6.548;2023-04-19T06:51:09;11.10;62.20
78345;DHT22;67620;51.134;6.548;2023-04-19T06:53:34;11.20;62.00
78345;DHT22;67620;51.134;6.548;2023-04-19T06:56:02;11.20;62.40
78345;DHT22;67620;51.134;6.548;2023-04-19T06:58:29;11.30;61.20
78345;DHT22;67620;51.134;6.548;2023-04-19T07:00:54;11.30;60.90
78345;DHT22;67620;51.134;6.548;2023-04-19T07:03:20;11.30;60.80
78345;DHT22;67620;51.134;6.548;2023-04-19T07:05:46;11.30;61.50
78345;DHT22;67620;51.134;6.548;2023-04-19T07:08:12;11.40;61.50
78345;DHT22;67620;51.134;6.548;2023-04-19T07:10:37;11.40;61.70
78345;DHT22;67620;51.134;6.548;2023-04-19T07:13:03;11.40;61.00
78345;DHT22;67620;51.134;6.548;2023-04-19T07:15:28;11.40;60.80
78345;DHT22;67620;51.134;6.548;2023-04-19T07:17:54;11.50;59.50
78345;DHT22;67620;51.134;6.548;2023-04-19T07:20:20;11.50;59.20
78345;DHT22;67620;51.134;6.548;2023-04-19T07:22:46;11.50;59.50
78345;DHT22;67620;51.134;6.548;2023-04-19T07:25:11;11.50;59.60
78345;DHT22;67620;51.134;6.548;2023-04-19T07:27:37;11.50;59.90
78345;DHT22;67620;51.134;6.548;2023-04-19T07:30:03;11.50;59.00
78345;DHT22;67620;51.134;6.548;2023-04-19T07:32:29;11.60;58.20
78345;DHT22;67620;51.134;6.548;2023-04-19T07:34:55;11.60;58.80
78345;DHT22;67620;51.134;6.548;2023-04-19T07:37:21;11.60;57.50
78345;DHT22;67620;51.134;6.548;2023-04-19T07:39:46;11.70;57.60
78345;DHT22;67620;51.134;6.548;2023-04-19T07:42:12;11.70;57.50
78345;DHT22;67620;51.134;6.548;2023-04-19T07:44:37;11.70;57.30
78345;DHT22;67620;51.134;6.548;2023-04-19T07:47:04;11.70;57.90
78345;DHT22;67620;51.134;6.548;2023-04-19T07:49:30;11.80;58.10
78345;DHT22;67620;51.134;6.548;2023-04-19T07:51:59;11.80;56.90
78345;DHT22;67620;51.134;6.548;2023-04-19T07:54:26;11.80;56.70
78345;DHT22;67620;51.134;6.548;2023-04-19T07:56:51;11.80;57.70
78345;DHT22;67620;51.134;6.548;2023-04-19T07:59:17;11.90;57.10
78345;DHT22;67620;51.134;6.548;2023-04-19T08:01:42;11.90;57.40
78345;DHT22;67620;51.134;6.548;2023-04-19T08:04:08;11.90;56.90
78345;DHT22;67620;51.134;6.548;2023-04-19T08:06:34;11.90;56.80
78345;DHT22;67620;51.134;6.548;2023-04-19T08:09:02;12.00;57.60
78345;DHT22;67620;51.134;6.548;2023-04-19T08:11:28;12.00;55.70
78345;DHT22;67620;51.134;6.548;2023-04-19T08:13:53;12.10;56.30
78345;DHT22;67620;51.134;6.548;2023-04-19T08:16:19;12.10;56.90
78345;DHT22;67620;51.134;6.548;2023-04-19T08:18:44;12.10;57.20
78345;DHT22;67620;51.134;6.548;2023-04-19T08:21:10;12.20;56.80
78345;DHT22;67620;51.134;6.548;2023-04-19T08:23:36;12.20;56.50
78345;DHT22;67620;51.134;6.548;2023-04-19T08:26:02;12.30;55.00
78345;DHT22;67620;51.134;6.548;2023-04-19T08:28:28;12.30;54.60
78345;DHT22;67620;51.134;6.548;2023-04-19T08:30:54;12.30;55.00
78345;DHT22;67620;51.134;6.548;2023-04-19T08:33:19;12.40;53.80
78345;DHT22;67620;51.134;6.548;2023-04-19T08:35:45;12.40;53.30
78345;DHT22;67620;51.134;6.548;2023-04-19T08:38:11;12.50;52.50
78345;DHT22;67620;51.134;6.548;2023-04-19T08:40:49;12.60;52.50
78345;DHT22;67620;51.134;6.548;2023-04-19T08:43:16;12.60;54.00
78345;DHT22;67620;51.134;6.548;2023-04-19T08:45:45;12.80;54.80
78345;DHT22;67620;51.134;6.548;2023-04-19T08:48:14;12.80;52.50
78345;DHT22;67620;51.134;6.548;2023-04-19T08:50:43;12.80;51.40
78345;DHT22;67620;51.134;6.548;2023-04-19T08:53:11;12.70;52.10
78345;DHT22;67620;51.134;6.548;2023-04-19T08:55:37;12.80;52.90
78345;DHT22;67620;51.134;6.548;2023-04-19T08:58:04;12.90;52.40
78345;DHT22;67620;51.134;6.548;2023-04-19T09:00:32;13.00;52.30
78345;DHT22;67620;51.134;6.548;2023-04-19T09:02:58;13.10;51.60
78345;DHT22;67620;51.134;6.548;2023-04-19T09:05:24;13.10;50.80
78345;DHT22;67620;51.134;6.548;2023-04-19T09:07:49;13.10;49.90
78345;DHT22;67620;51.134;6.548;2023-04-19T09:10:16;13.10;50.60
78345;DHT22;67620;51.134;6.548;2023-04-19T09:12:43;13.10;48.50
78345;DHT22;67620;51.134;6.548;2023-04-19T09:15:35;13.30;48.20
78345;DHT22;67620;51.134;6.548;2023-04-19T09:18:06;13.20;48.70
78345;DHT22;67620;51.134;6.548;2023-04-19T09:20:38;13.30;46.60
78345;DHT22;67620;51.134;6.548;2023-04-19T09:23:06;13.30;47.50
78345;DHT22;67620;51.134;6.548;2023-04-19T09:25:32;13.30;47.30
78345;DHT22;67620;51.134;6.548;2023-04-19T09:28:14;13.30;47.00
78345;DHT22;67620;51.134;6.548;2023-04-19T09:30:40;13.30;45.90
78345;DHT22;67620;51.134;6.548;2023-04-19T09:33:06;13.40;46.00
78345;DHT22;67620;51.134;6.548;2023-04-19T09:35:42;13.40;45.80
78345;DHT22;67620;51.134;6.548;2023-04-19T09:38:08;13.50;45.00
78345;DHT22;67620;51.134;6.548;2023-04-19T09:40:34;13.50;46.00
78345;DHT22;67620;51.134;6.548;2023-04-19T09:43:00;13.60;44.50
78345;DHT22;67620;51.134;6.548;2023-04-19T09:45:26;13.50;44.70
78345;DHT22;67620;51.134;6.548;2023-04-19T09:48:02;13.50;46.50
78345;DHT22;67620;51.134;6.548;2023-04-19T09:50:28;13.60;46.40
78345;DHT22;67620;51.134;6.548;2023-04-19T09:52:53;13.60;46.40
78345;DHT22;67620;51.134;6.548;2023-04-19T09:55:20;13.50;46.90
78345;DHT22;67620;51.134;6.548;2023-04-19T09:57:46;13.60;44.60
78345;DHT22;67620;51.134;6.548;2023-04-19T10:00:12;13.70;45.20
78345;DHT22;67620;51.134;6.548;2023-04-19T10:02:40;13.80;46.00
78345;DHT22;67620;51.134;6.548;2023-04-19T10:05:08;13.70;45.10
78345;DHT22;67620;51.134;6.548;2023-04-19T10:07:35;13.80;45.10
78345;DHT22;67620;51.134;6.548;2023-04-19T10:10:02;13.80;45.50
78345;DHT22;67620;51.134;6.548;2023-04-19T10:12:30;13.90;44.70
78345;DHT22;67620;51.134;6.548;2023-04-19T10:14:56;14.00;44.50
78345;DHT22;67620;51.134;6.548;2023-04-19T10:17:22;14.00;43.00
78345;DHT22;67620;51.134;6.548;2023-04-19T10:19:54;14.00;42.50
78345;DHT22;67620;51.134;6.548;2023-04-19T10:22:20;14.00;44.30
78345;DHT22;67620;51.134;6.548;2023-04-19T10:25:13;14.10;42.90
78345;DHT22;67620;51.134;6.548;2023-04-19T10:27:41;14.00;43.50
78345;DHT22;67620;51.134;6.548;2023-04-19T10:30:21;14.10;42.60
78345;DHT22;67620;51.134;6.548;2023-04-19T10:32:58;14.30;39.90
78345;DHT22;67620;51.134;6.548;2023-04-19T10:35:33;14.30;41.80
78345;DHT22;67620;51.134;6.548;2023-04-19T10:40:56;14.40;39.30
78345;DHT22;67620;51.134;6.548;2023-04-19T10:45:51;14.20;41.20
78345;DHT22;67620;51.134;6.548;2023-04-19T10:53:47;14.40;39.80
78345;DHT22;67620;51.134;6.548;2023-04-19T10:56:14;14.40;39.10
78345;DHT22;67620;51.134;6.548;2023-04-19T11:04:02;14.30;41.10
78345;DHT22;67620;51.134;6.548;2023-04-19T11:06:28;14.40;39.60
78345;DHT22;67620;51.134;6.548;2023-04-19T11:08:53;14.40;39.10
78345;DHT22;67620;51.134;6.548;2023-04-19T11:11:19;14.40;38.50
78345;DHT22;67620;51.134;6.548;2023-04-19T11:13:50;14.40;37.70
78345;DHT22;67620;51.134;6.548;2023-04-19T11:16:15;14.50;37.30
78345;DHT22;67620;51.134;6.548;2023-04-19T11:18:42;14.50;36.90
78345;DHT22;67620;51.134;6.548;2023-04-19T11:21:12;14.50;37.50
78345;DHT22;67620;51.134;6.548;2023-04-19T11:23:38;14.40;37.90
78345;DHT22;67620;51.134;6.548;2023-04-19T11:26:04;14.40;37.20
78345;DHT22;67620;51.134;6.548;2023-04-19T11:28:32;14.50;37.70
78345;DHT22;67620;51.134;6.548;2023-04-19T11:30:58;14.50;36.40
78345;DHT22;67620;51.134;6.548;2023-04-19T11:33:23;14.50;38.00
78345;DHT22;67620;51.134;6.548;2023-04-19T11:35:50;14.60;36.10
78345;DHT22;67620;51.134;6.548;2023-04-19T11:38:15;14.60;36.40
78345;DHT22;67620;51.134;6.548;2023-04-19T11:40:41;14.60;37.40
78345;DHT22;67620;51.134;6.548;2023-04-19T11:43:06;14.60;36.20
78345;DHT22;67620;51.134;6.548;2023-04-19T11:45:36;14.70;35.30
78345;DHT22;67620;51.134;6.548;2023-04-19T11:48:06;14.60;35.40
78345;DHT22;67620;51.134;6.548;2023-04-19T11:50:37;14.70;37.20
78345;DHT22;67620;51.134;6.548;2023-04-19T11:53:19;14.60;37.90
78345;DHT22;67620;51.134;6.548;2023-04-19T11:56:04;14.60;36.20
78345;DHT22;67620;51.134;6.548;2023-04-19T11:58:44;14.70;37.60
78345;DHT22;67620;51.134;6.548;2023-04-19T12:01:14;14.60;37.70
78345;DHT22;67620;51.134;6.548;2023-04-19T12:03:48;14.70;37.30
78345;DHT22;67620;51.134;6.548;2023-04-19T12:06:25;14.80;36.60
78345;DHT22;67620;51.134;6.548;2023-04-19T12:08:52;14.80;37.30
78345;DHT22;67620;51.134;6.548;2023-04-19T12:11:21;14.80;37.40
78345;DHT22;67620;51.134;6.548;2023-04-19T12:13:48;14.90;37.10
78345;DHT22;67620;51.134;6.548;2023-04-19T12:16:31;14.90;35.60
78345;DHT22;67620;51.134;6.548;2023-04-19T12:18:57;14.80;35.70
78345;DHT22;67620;51.134;6.548;2023-04-19T12:21:32;14.80;36.50
78345;DHT22;67620;51.134;6.548;2023-04-19T12:23:59;14.90;36.90
78345;DHT22;67620;51.134;6.548;2023-04-19T12:26:26;14.90;35.60
78345;DHT22;67620;51.134;6.548;2023-04-19T12:28:53;14.90;35.60
78345;DHT22;67620;51.134;6.548;2023-04-19T12:31:19;14.80;36.70
78345;DHT22;67620;51.134;6.548;2023-04-19T12:33:45;14.90;37.00
78345;DHT22;67620;51.134;6.548;2023-04-19T12:36:10;14.90;36.40
78345;DHT22;67620;51.134;6.548;2023-04-19T12:38:36;14.90;36.30
78345;DHT22;67620;51.134;6.548;2023-04-19T12:41:01;14.90;35.20
78345;DHT22;67620;51.134;6.548;2023-04-19T12:43:27;14.90;34.70
78345;DHT22;67620;51.134;6.548;2023-04-19T12:45:54;14.90;35.30
78345;DHT22;67620;51.134;6.548;2023-04-19T12:48:20;14.90;34.30
78345;DHT22;67620;51.134;6.548;2023-04-19T12:50:45;14.90;36.30
78345;DHT22;67620;51.134;6.548;2023-04-19T12:53:11;14.90;35.30
78345;DHT22;67620;51.134;6.548;2023-04-19T12:55:36;14.90;37.80
78345;DHT22;67620;51.134;6.548;2023-04-19T12:58:02;14.90;35.30
78345;DHT22;67620;51.134;6.548;2023-04-19T13:00:27;15.00;35.30
78345;DHT22;67620;51.134;6.548;2023-04-19T13:02:54;14.90;35.70
78345;DHT22;67620;51.134;6.548;2023-04-19T13:05:20;14.90;35.90
78345;DHT22;67620;51.134;6.548;2023-04-19T13:07:45;14.90;35.30
78345;DHT22;67620;51.134;6.548;2023-04-19T13:10:11;14.90;36.60
78345;DHT22;67620;51.134;6.548;2023-04-19T13:12:36;15.00;36.80
78345;DHT22;67620;51.134;6.548;2023-04-19T13:15:02;14.90;37.10
78345;DHT22;67620;51.134;6.548;2023-04-19T13:17:28;15.00;35.80
78345;DHT22;67620;51.134;6.548;2023-04-19T13:19:53;15.00;35.30
78345;DHT22;67620;51.134;6.548;2023-04-19T13:22:19;15.00;36.00
78345;DHT22;67620;51.134;6.548;2023-04-19T13:24:44;15.00;35.10
78345;DHT22;67620;51.134;6.548;2023-04-19T13:27:10;15.10;34.80
78345;DHT22;67620;51.134;6.548;2023-04-19T13:29:36;15.00;35.10
78345;DHT22;67620;51.134;6.548;2023-04-19T13:32:01;15.00;35.60
78345;DHT22;67620;51.134;6.548;2023-04-19T13:34:27;15.00;36.90
78345;DHT22;67620;51.134;6.548;2023-04-19T13:36:52;15.10;37.50
78345;DHT22;67620;51.134;6.548;2023-04-19T13:39:18;15.20;35.80
78345;DHT22;67620;51.134;6.548;2023-04-19T13:41:43;15.10;35.30
78345;DHT22;67620;51.134;6.548;2023-04-19T13:44:09;15.10;36.40
78345;DHT22;67620;51.134;6.548;2023-04-19T13:46:35;15.00;36.50
78345;DHT22;67620;51.134;6.548;2023-04-19T13:49:00;15.00;36.70
78345;DHT22;67620;51.134;6.548;2023-04-19T13:51:26;15.10;37.70
78345;DHT22;67620;51.134;6.548;2023-04-19T13:53:52;15.10;36.50
78345;DHT22;67620;51.134;6.548;2023-04-19T13:56:17;15.10;36.90
78345;DHT22;67620;51.134;6.548;2023-04-19T13:58:43;15.10;36.50
78345;DHT22;67620;51.134;6.548;2023-04-19T14:01:08;15.20;37.40
78345;DHT22;67620;51.134;6.548;2023-04-19T14:03:34;15.20;36.50
78345;DHT22;67620;51.134;6.548;2023-04-19T14:06:00;15.20;37.90
78345;DHT22;67620;51.134;6.548;2023-04-19T14:08:25;15.10;37.00
78345;DHT22;67620;51.134;6.548;2023-04-19T14:10:51;15.10;37.90
78345;DHT22;67620;51.134;6.548;2023-04-19T14:13:16;15.10;38.30
78345;DHT22;67620;51.134;6.548;2023-04-19T14:15:42;15.20;36.20
78345;DHT22;67620;51.134;6.548;2023-04-19T14:18:07;15.10;36.10
78345;DHT22;67620;51.134;6.548;2023-04-19T14:20:33;15.10;35.90
78345;DHT22;67620;51.134;6.548;2023-04-19T14:22:58;15.20;37.00
78345;DHT22;67620;51.134;6.548;2023-04-19T14:25:25;15.20;37.70
78345;DHT22;67620;51.134;6.548;2023-04-19T14:27:50;15.20;37.10
78345;DHT22;67620;51.134;6.548;2023-04-19T14:30:16;15.20;38.80
78345;DHT22;67620;51.134;6.548;2023-04-19T14:32:41;15.20;36.90
78345;DHT22;67620;51.134;6.548;2023-04-19T14:35:07;15.20;38.30
78345;DHT22;67620;51.134;6.548;2023-04-19T14:37:35;15.20;37.10
78345;DHT22;67620;51.134;6.548;2023-04-19T14:40:01;15.10;35.50
78345;DHT22;67620;51.134;6.548;2023-04-19T14:42:26;15.10;36.00
78345;DHT22;67620;51.134;6.548;2023-04-19T14:44:52;15.10;36.20
78345;DHT22;67620;51.134;6.548;2023-04-19T14:47:18;15.10;36.30
78345;DHT22;67620;51.134;6.548;2023-04-19T14:49:43;15.10;35.40
78345;DHT22;67620;51.134;6.548;2023-04-19T14:52:09;15.10;35.20
78345;DHT22;67620;51.134;6.548;2023-04-19T14:54:34;15.10;36.10
78345;DHT22;67620;51.134;6.548;2023-04-19T14:57:00;15.10;36.50
78345;DHT22;67620;51.134;6.548;2023-04-19T14:59:26;15.10;36.60
78345;DHT22;67620;51.134;6.548;2023-04-19T15:01:52;15.10;36.60
78345;DHT22;67620;51.134;6.548;2023-04-19T15:04:17;15.10;37.40
78345;DHT22;67620;51.134;6.548;2023-04-19T15:06:43;15.10;35.90
78345;DHT22;67620;51.134;6.548;2023-04-19T15:09:08;15.10;36.90
78345;DHT22;67620;51.134;6.548;2023-04-19T15:11:35;15.10;37.50
78345;DHT22;67620;51.134;6.548;2023-04-19T15:14:00;15.10;38.10
78345;DHT22;67620;51.134;6.548;2023-04-19T15:16:26;15.10;36.10
78345;DHT22;67620;51.134;6.548;2023-04-19T15:18:52;15.10;35.80
78345;DHT22;67620;51.134;6.548;2023-04-19T15:21:18;15.00;35.50
78345;DHT22;67620;51.134;6.548;2023-04-19T15:23:44;14.90;35.70
78345;DHT22;67620;51.134;6.548;2023-04-19T15:26:10;14.90;36.00
78345;DHT22;67620;51.134;6.548;2023-04-19T15:28:35;14.90;34.30
78345;DHT22;67620;51.134;6.548;2023-04-19T15:31:02;15.00;36.10
78345;DHT22;67620;51.134;6.548;2023-04-19T15:33:28;15.00;34.50
78345;DHT22;67620;51.134;6.548;2023-04-19T15:35:54;15.00;34.60
78345;DHT22;67620;51.134;6.548;2023-04-19T15:38:21;15.00;34.30
78345;DHT22;67620;51.134;6.548;2023-04-19T15:40:46;15.00;34.40
78345;DHT22;67620;51.134;6.548;2023-04-19T15:43:12;15.00;34.70